sensor_id;sensor_type;location;lat;lon;timestamp;pressure;altitude;pressure_sealevel;temperature;humidity
79136;BME280;68533;51.090;17.216;2023-03-21T00:00:45;100219.53;;;7.17;93.69
79136;BME280;68533;51.090;17.216;2023-03-21T00:03:20;100209.41;;;7.18;92.38
79136;BME280;68533;51.090;17.216;2023-03-21T00:05:46;100216.22;;;7.10;93.54
79136;BME280;68533;51.090;17.216;2023-03-21T00:08:22;100205.53;;;7.14;93.57
79136;BME280;68533;51.090;17.216;2023-03-21T00:11:00;100201.72;;;7.15;92.74
79136;BME280;68533;51.090;17.216;2023-03-21T00:13:28;100214.06;;;7.17;91.77
79136;BME280;68533;51.090;17.216;2023-03-21T00:16:06;100202.81;;;7.14;92.39
79136;BME280;68533;51.090;17.216;2023-03-21T00:18:34;100197.88;;;7.11;92.48
79136;BME280;68533;51.090;17.216;2023-03-21T00:21:07;100201.47;;;7.16;91.78
79136;BME280;68533;51.090;17.216;2023-03-21T00:23:34;100192.72;;;7.19;91.70
79136;BME280;68533;51.090;17.216;2023-03-21T00:26:01;100191.63;;;7.20;91.38
79136;BME280;68533;51.090;17.216;2023-03-21T00:28:27;100192.69;;;7.14;93.58
79136;BME280;68533;51.090;17.216;2023-03-21T00:30:58;100189.41;;;7.12;92.10
79136;BME280;68533;51.090;17.216;2023-03-21T00:33:24;100180.09;;;7.13;92.97
79136;BME280;68533;51.090;17.216;2023-03-21T00:35:50;100174.69;;;7.18;92.50
79136;BME280;68533;51.090;17.216;2023-03-21T00:38:19;100173.09;;;7.32;90.58
79136;BME280;68533;51.090;17.216;2023-03-21T00:40:46;100183.41;;;7.20;92.03
79136;BME280;68533;51.090;17.216;2023-03-21T00:43:12;100179.03;;;7.19;91.97
79136;BME280;68533;51.090;17.216;2023-03-21T00:45:39;100181.19;;;7.12;93.47
79136;BME280;68533;51.090;17.216;2023-03-21T00:48:05;100180.09;;;7.03;94.54
79136;BME280;68533;51.090;17.216;2023-03-21T00:50:31;100184.47;;;7.09;93.47
79136;BME280;68533;51.090;17.216;2023-03-21T00:52:59;100180.91;;;7.09;93.54
79136;BME280;68533;51.090;17.216;2023-03-21T00:55:25;100176.28;;;7.09;93.87
79136;BME280;68533;51.090;17.216;2023-03-21T00:57:51;100168.84;;;7.05;93.32
79136;BME280;68533;51.090;17.216;2023-03-21T01:00:17;100177.38;;;7.08;93.95
79136;BME280;68533;51.090;17.216;2023-03-21T01:02:44;100179.53;;;7.06;93.29
79136;BME280;68533;51.090;17.216;2023-03-21T01:05:24;100172.72;;;7.09;93.22
79136;BME280;68533;51.090;17.216;2023-03-21T01:08:11;100178.72;;;7.06;93.48
79136;BME280;68533;51.090;17.216;2023-03-21T01:10:43;100170.78;;;7.04;93.20
79136;BME280;68533;51.090;17.216;2023-03-21T01:13:10;100168.31;;;7.03;94.10
79136;BME280;68533;51.090;17.216;2023-03-21T01:15:43;100174.63;;;7.03;93.47
79136;BME280;68533;51.090;17.216;2023-03-21T01:18:09;100177.06;;;7.05;93.96
79136;BME280;68533;51.090;17.216;2023-03-21T01:20:36;100189.97;;;7.19;93.32
79136;BME280;68533;51.090;17.216;2023-03-21T01:23:03;100186.16;;;7.20;94.19
79136;BME280;68533;51.090;17.216;2023-03-21T01:25:30;100190.84;;;7.30;94.23
79136;BME280;68533;51.090;17.216;2023-03-21T01:27:56;100187.88;;;7.41;93.20
79136;BME280;68533;51.090;17.216;2023-03-21T01:30:23;100192.28;;;7.48;92.65
79136;BME280;68533;51.090;17.216;2023-03-21T01:32:49;100179.44;;;7.53;92.67
79136;BME280;68533;51.090;17.216;2023-03-21T01:35:15;100180.25;;;7.54;92.91
79136;BME280;68533;51.090;17.216;2023-03-21T01:37:41;100177.53;;;7.54;91.93
79136;BME280;68533;51.090;17.216;2023-03-21T01:40:13;100175.59;;;7.54;92.06
79136;BME280;68533;51.090;17.216;2023-03-21T01:42:45;100162.44;;;7.46;91.95
79136;BME280;68533;51.090;17.216;2023-03-21T01:48:17;100156.16;;;7.40;90.10
79136;BME280;68533;51.090;17.216;2023-03-21T01:50:44;100167.09;;;7.40;90.71
79136;BME280;68533;51.090;17.216;2023-03-21T01:53:11;100159.94;;;7.34;90.23
79136;BME280;68533;51.090;17.216;2023-03-21T01:55:39;100156.38;;;7.29;90.70
79136;BME280;68533;51.090;17.216;2023-03-21T01:58:07;100145.44;;;7.24;90.54
79136;BME280;68533;51.090;17.216;2023-03-21T02:03:10;100139.34;;;7.12;91.07
79136;BME280;68533;51.090;17.216;2023-03-21T02:06:01;100136.34;;;7.08;91.10
79136;BME280;68533;51.090;17.216;2023-03-21T02:08:30;100146.19;;;7.09;90.88
79136;BME280;68533;51.090;17.216;2023-03-21T02:10:58;100154.09;;;7.00;91.24
79136;BME280;68533;51.090;17.216;2023-03-21T02:13:25;100160.09;;;6.97;91.87
79136;BME280;68533;51.090;17.216;2023-03-21T02:15:58;100153.78;;;6.92;91.57
79136;BME280;68533;51.090;17.216;2023-03-21T02:23:15;100164.69;;;6.87;91.78
79136;BME280;68533;51.090;17.216;2023-03-21T02:27:55;100155.59;;;6.71;92.06
79136;BME280;68533;51.090;17.216;2023-03-21T02:38:52;100183.72;;;6.67;91.88
79136;BME280;68533;51.090;17.216;2023-03-21T02:44:40;100180.41;;;6.65;92.05
79136;BME280;68533;51.090;17.216;2023-03-21T02:47:12;100177.44;;;6.66;91.97
79136;BME280;68533;51.090;17.216;2023-03-21T02:50:44;100177.97;;;6.68;91.61
79136;BME280;68533;51.090;17.216;2023-03-21T02:52:51;100176.63;;;6.71;92.00
79136;BME280;68533;51.090;17.216;2023-03-21T02:55:24;100175.53;;;6.72;91.66
79136;BME280;68533;51.090;17.216;2023-03-21T02:57:53;100173.31;;;6.69;92.11
79136;BME280;68533;51.090;17.216;2023-03-21T03:00:24;100179.38;;;6.76;91.58
79136;BME280;68533;51.090;17.216;2023-03-21T03:02:51;100164.06;;;6.75;91.46
79136;BME280;68533;51.090;17.216;2023-03-21T03:05:22;100177.44;;;6.71;91.49
79136;BME280;68533;51.090;17.216;2023-03-21T03:18:42;100179.13;;;6.77;92.26
79136;BME280;68533;51.090;17.216;2023-03-21T03:21:21;100165.44;;;6.72;93.16
79136;BME280;68533;51.090;17.216;2023-03-21T03:24:14;100160.22;;;6.71;91.98
79136;BME280;68533;51.090;17.216;2023-03-21T03:26:54;100165.75;;;6.81;92.34
79136;BME280;68533;51.090;17.216;2023-03-21T03:29:22;100175.81;;;6.70;92.59
79136;BME280;68533;51.090;17.216;2023-03-21T03:32:01;100177.19;;;6.73;92.61
79136;BME280;68533;51.090;17.216;2023-03-21T03:34:35;100173.91;;;6.76;92.56
79136;BME280;68533;51.090;17.216;2023-03-21T03:37:13;100177.72;;;6.70;93.27
79136;BME280;68533;51.090;17.216;2023-03-21T03:40:07;100179.88;;;6.68;92.37
79136;BME280;68533;51.090;17.216;2023-03-21T03:42:50;100188.06;;;6.68;92.67
79136;BME280;68533;51.090;17.216;2023-03-21T03:45:22;100179.88;;;6.68;92.22
79136;BME280;68533;51.090;17.216;2023-03-21T03:50:40;100177.13;;;6.68;92.65
79136;BME280;68533;51.090;17.216;2023-03-21T03:53:24;100180.41;;;6.65;93.34
79136;BME280;68533;51.090;17.216;2023-03-21T03:55:53;100185.31;;;6.62;93.13
79136;BME280;68533;51.090;17.216;2023-03-21T03:58:22;100189.69;;;6.63;93.79
79136;BME280;68533;51.090;17.216;2023-03-21T04:00:50;100186.16;;;6.63;93.84
79136;BME280;68533;51.090;17.216;2023-03-21T04:03:17;100183.44;;;6.68;92.01
79136;BME280;68533;51.090;17.216;2023-03-21T04:05:43;100179.03;;;6.62;92.96
79136;BME280;68533;51.090;17.216;2023-03-21T04:08:15;100182.84;;;6.61;94.08
79136;BME280;68533;51.090;17.216;2023-03-21T04:10:41;100195.16;;;6.58;93.47
79136;BME280;68533;51.090;17.216;2023-03-21T04:13:08;100186.66;;;6.60;93.20
79136;BME280;68533;51.090;17.216;2023-03-21T04:15:35;100194.59;;;6.61;93.12
79136;BME280;68533;51.090;17.216;2023-03-21T04:18:05;100193.50;;;6.57;94.35
79136;BME280;68533;51.090;17.216;2023-03-21T04:20:31;100200.03;;;6.56;93.09
79136;BME280;68533;51.090;17.216;2023-03-21T04:22:57;100199.72;;;6.53;94.38
79136;BME280;68533;51.090;17.216;2023-03-21T04:25:23;100191.25;;;6.49;94.46
79136;BME280;68533;51.090;17.216;2023-03-21T04:27:53;100194.56;;;6.51;94.27
79136;BME280;68533;51.090;17.216;2023-03-21T04:30:20;100197.88;;;6.58;93.98
79136;BME280;68533;51.090;17.216;2023-03-21T04:32:50;100199.22;;;6.56;94.00
79136;BME280;68533;51.090;17.216;2023-03-21T04:35:19;100190.50;;;6.59;94.08
79136;BME280;68533;51.090;17.216;2023-03-21T04:37:45;100194.91;;;6.65;93.07
79136;BME280;68533;51.090;17.216;2023-03-21T04:40:11;100197.06;;;6.58;93.91
79136;BME280;68533;51.090;17.216;2023-03-21T04:42:41;100194.03;;;6.59;94.34
79136;BME280;68533;51.090;17.216;2023-03-21T04:45:07;100196.75;;;6.59;94.28
79136;BME280;68533;51.090;17.216;2023-03-21T04:47:33;100197.59;;;6.60;94.26
79136;BME280;68533;51.090;17.216;2023-03-21T04:49:59;100196.25;;;6.62;94.30
79136;BME280;68533;51.090;17.216;2023-03-21T04:52:25;100199.00;;;6.68;93.40
79136;BME280;68533;51.090;17.216;2023-03-21T04:54:52;100202.84;;;6.67;93.53
79136;BME280;68533;51.090;17.216;2023-03-21T04:57:18;100192.72;;;6.67;94.20
79136;BME280;68533;51.090;17.216;2023-03-21T04:59:44;100196.84;;;6.70;93.86
79136;BME280;68533;51.090;17.216;2023-03-21T05:02:11;100195.25;;;6.74;93.57
79136;BME280;68533;51.090;17.216;2023-03-21T05:04:38;100198.22;;;6.72;93.60
79136;BME280;68533;51.090;17.216;2023-03-21T05:07:04;100203.13;;;6.70;94.10
79136;BME280;68533;51.090;17.216;2023-03-21T05:09:37;100200.13;;;6.72;93.16
79136;BME280;68533;51.090;17.216;2023-03-21T05:12:03;100207.25;;;6.73;93.42
79136;BME280;68533;51.090;17.216;2023-03-21T05:14:29;100206.69;;;6.71;93.61
79136;BME280;68533;51.090;17.216;2023-03-21T05:16:56;100203.97;;;6.71;93.67
79136;BME280;68533;51.090;17.216;2023-03-21T05:19:25;100210.75;;;6.68;93.55
79136;BME280;68533;51.090;17.216;2023-03-21T05:22:04;100208.06;;;6.73;93.81
79136;BME280;68533;51.090;17.216;2023-03-21T05:24:31;100211.91;;;6.72;93.29
79136;BME280;68533;51.090;17.216;2023-03-21T05:27:02;100215.19;;;6.74;93.20
79136;BME280;68533;51.090;17.216;2023-03-21T05:29:29;100213.25;;;6.75;93.38
79136;BME280;68533;51.090;17.216;2023-03-21T05:31:57;100209.75;;;6.79;93.42
79136;BME280;68533;51.090;17.216;2023-03-21T05:34:23;100217.38;;;6.77;93.13
79136;BME280;68533;51.090;17.216;2023-03-21T05:36:50;100215.47;;;6.78;93.74
79136;BME280;68533;51.090;17.216;2023-03-21T05:39:19;100219.53;;;6.75;93.41
79136;BME280;68533;51.090;17.216;2023-03-21T05:41:53;100226.66;;;6.76;93.60
79136;BME280;68533;51.090;17.216;2023-03-21T05:44:19;100224.25;;;6.80;92.67
79136;BME280;68533;51.090;17.216;2023-03-21T05:46:45;100224.78;;;6.82;92.76
79136;BME280;68533;51.090;17.216;2023-03-21T05:49:11;100228.34;;;6.82;93.21
79136;BME280;68533;51.090;17.216;2023-03-21T05:51:37;100220.44;;;6.81;94.01
79136;BME280;68533;51.090;17.216;2023-03-21T05:54:03;100221.50;;;6.80;93.47
79136;BME280;68533;51.090;17.216;2023-03-21T05:56:30;100229.13;;;6.78;93.43
79136;BME280;68533;51.090;17.216;2023-03-21T05:58:56;100232.69;;;6.78;93.82
79136;BME280;68533;51.090;17.216;2023-03-21T06:01:22;100229.50;;;6.91;93.08
79136;BME280;68533;51.090;17.216;2023-03-21T06:03:48;100233.03;;;6.92;93.35
79136;BME280;68533;51.090;17.216;2023-03-21T06:06:15;100233.91;;;6.97;92.96
79136;BME280;68533;51.090;17.216;2023-03-21T06:08:41;100231.47;;;7.01;93.08
79136;BME280;68533;51.090;17.216;2023-03-21T06:11:18;100235.00;;;6.96;93.40
79136;BME280;68533;51.090;17.216;2023-03-21T06:13:45;100239.13;;;7.04;92.72
79136;BME280;68533;51.090;17.216;2023-03-21T06:16:11;100232.56;;;7.05;93.06
79136;BME280;68533;51.090;17.216;2023-03-21T06:18:37;100244.56;;;6.99;92.78
79136;BME280;68533;51.090;17.216;2023-03-21T06:21:04;100234.19;;;7.01;92.03
79136;BME280;68533;51.090;17.216;2023-03-21T06:23:30;100241.31;;;7.02;92.52
79136;BME280;68533;51.090;17.216;2023-03-21T06:25:57;100249.78;;;7.06;93.01
79136;BME280;68533;51.090;17.216;2023-03-21T06:28:23;100243.31;;;7.17;92.64
79136;BME280;68533;51.090;17.216;2023-03-21T06:30:51;100241.34;;;7.07;92.45
79136;BME280;68533;51.090;17.216;2023-03-21T06:33:17;100248.22;;;7.15;91.99
79136;BME280;68533;51.090;17.216;2023-03-21T06:35:43;100247.41;;;7.19;92.22
79136;BME280;68533;51.090;17.216;2023-03-21T06:38:10;100241.69;;;7.21;92.03
79136;BME280;68533;51.090;17.216;2023-03-21T06:40:37;100251.28;;;7.23;92.00
79136;BME280;68533;51.090;17.216;2023-03-21T06:43:05;100251.53;;;7.27;91.94
79136;BME280;68533;51.090;17.216;2023-03-21T06:45:34;100261.66;;;7.21;92.74
79136;BME280;68533;51.090;17.216;2023-03-21T06:48:00;100255.09;;;7.22;92.13
79136;BME280;68533;51.090;17.216;2023-03-21T06:50:27;100253.78;;;7.35;91.98
79136;BME280;68533;51.090;17.216;2023-03-21T06:52:53;100265.25;;;7.32;91.93
79136;BME280;68533;51.090;17.216;2023-03-21T06:55:19;100265.53;;;7.35;91.54
79136;BME280;68533;51.090;17.216;2023-03-21T06:57:51;100268.31;;;7.40;91.14
79136;BME280;68533;51.090;17.216;2023-03-21T07:00:18;100266.94;;;7.38;90.94
79136;BME280;68533;51.090;17.216;2023-03-21T07:02:44;100269.69;;;7.43;91.20
79136;BME280;68533;51.090;17.216;2023-03-21T07:05:15;100275.97;;;7.44;91.29
79136;BME280;68533;51.090;17.216;2023-03-21T07:07:44;100272.47;;;7.48;90.64
79136;BME280;68533;51.090;17.216;2023-03-21T07:10:10;100278.13;;;7.36;89.72
79136;BME280;68533;51.090;17.216;2023-03-21T07:12:36;100276.22;;;7.37;89.99
79136;BME280;68533;51.090;17.216;2023-03-21T07:15:04;100275.44;;;7.47;89.13
79136;BME280;68533;51.090;17.216;2023-03-21T07:17:31;100285.84;;;7.45;88.65
79136;BME280;68533;51.090;17.216;2023-03-21T07:19:58;100280.59;;;7.38;89.28
79136;BME280;68533;51.090;17.216;2023-03-21T07:22:24;100268.31;;;7.40;87.90
79136;BME280;68533;51.090;17.216;2023-03-21T07:24:50;100279.84;;;7.48;88.42
79136;BME280;68533;51.090;17.216;2023-03-21T07:27:17;100275.44;;;7.47;86.97
79136;BME280;68533;51.090;17.216;2023-03-21T07:29:43;100276.28;;;7.52;86.46
79136;BME280;68533;51.090;17.216;2023-03-21T07:32:12;100279.91;;;7.63;86.26
79136;BME280;68533;51.090;17.216;2023-03-21T07:34:38;100277.16;;;7.68;86.14
79136;BME280;68533;51.090;17.216;2023-03-21T07:37:04;100285.94;;;7.75;85.39
79136;BME280;68533;51.090;17.216;2023-03-21T07:39:32;100292.00;;;7.77;83.06
79136;BME280;68533;51.090;17.216;2023-03-21T07:41:59;100287.34;;;7.83;83.90
79136;BME280;68533;51.090;17.216;2023-03-21T07:44:29;100294.75;;;7.87;83.58
79136;BME280;68533;51.090;17.216;2023-03-21T07:46:55;100289.81;;;7.89;84.56
79136;BME280;68533;51.090;17.216;2023-03-21T07:49:21;100284.66;;;8.03;82.97
79136;BME280;68533;51.090;17.216;2023-03-21T07:51:47;100293.72;;;8.13;83.55
79136;BME280;68533;51.090;17.216;2023-03-21T07:54:13;100295.91;;;8.06;79.51
79136;BME280;68533;51.090;17.216;2023-03-21T07:56:42;100294.81;;;8.12;80.25
79136;BME280;68533;51.090;17.216;2023-03-21T07:59:09;100287.16;;;8.19;81.08
79136;BME280;68533;51.090;17.216;2023-03-21T08:01:35;100292.97;;;8.33;80.87
79136;BME280;68533;51.090;17.216;2023-03-21T08:04:02;100293.81;;;8.59;80.71
79136;BME280;68533;51.090;17.216;2023-03-21T08:06:28;100295.72;;;8.48;78.52
79136;BME280;68533;51.090;17.216;2023-03-21T08:08:57;100303.66;;;8.85;78.35
79136;BME280;68533;51.090;17.216;2023-03-21T08:11:24;100302.56;;;8.86;76.22
79136;BME280;68533;51.090;17.216;2023-03-21T08:13:50;100298.16;;;8.95;75.96
79136;BME280;68533;51.090;17.216;2023-03-21T08:16:17;100299.78;;;9.07;75.46
79136;BME280;68533;51.090;17.216;2023-03-21T08:18:43;100295.44;;;8.55;76.52
79136;BME280;68533;51.090;17.216;2023-03-21T08:21:09;100295.72;;;8.74;78.11
79136;BME280;68533;51.090;17.216;2023-03-21T08:23:37;100302.56;;;8.66;75.79
79136;BME280;68533;51.090;17.216;2023-03-21T08:26:03;100309.41;;;8.69;77.30
79136;BME280;68533;51.090;17.216;2023-03-21T08:28:30;100306.94;;;8.57;78.82
79136;BME280;68533;51.090;17.216;2023-03-21T08:30:56;100306.94;;;8.67;77.87
79136;BME280;68533;51.090;17.216;2023-03-21T08:33:22;100309.41;;;8.89;79.69
79136;BME280;68533;51.090;17.216;2023-03-21T08:35:48;100313.78;;;9.00;78.36
79136;BME280;68533;51.090;17.216;2023-03-21T08:38:14;100318.72;;;8.93;79.04
79136;BME280;68533;51.090;17.216;2023-03-21T08:40:41;100320.38;;;8.69;79.37
79136;BME280;68533;51.090;17.216;2023-03-21T08:43:08;100311.06;;;8.54;78.67
79136;BME280;68533;51.090;17.216;2023-03-21T08:45:35;100311.34;;;8.63;79.37
79136;BME280;68533;51.090;17.216;2023-03-21T08:48:02;100317.38;;;8.65;78.38
79136;BME280;68533;51.090;17.216;2023-03-21T08:50:28;100319.03;;;8.81;79.89
79136;BME280;68533;51.090;17.216;2023-03-21T08:52:56;100317.66;;;8.59;79.45
79136;BME280;68533;51.090;17.216;2023-03-21T08:55:22;100319.00;;;8.46;79.34
79136;BME280;68533;51.090;17.216;2023-03-21T08:57:49;100333.47;;;8.21;79.10
79136;BME280;68533;51.090;17.216;2023-03-21T09:00:16;100327.63;;;7.97;79.30
79136;BME280;68533;51.090;17.216;2023-03-21T09:02:44;100331.41;;;7.86;79.26
79136;BME280;68533;51.090;17.216;2023-03-21T09:05:11;100333.06;;;7.87;81.19
79136;BME280;68533;51.090;17.216;2023-03-21T09:07:39;100326.25;;;7.85;82.21
79136;BME280;68533;51.090;17.216;2023-03-21T09:10:07;100334.44;;;7.85;82.15
79136;BME280;68533;51.090;17.216;2023-03-21T09:12:35;100333.59;;;7.79;82.72
79136;BME280;68533;51.090;17.216;2023-03-21T09:15:01;100336.31;;;7.79;84.79
79136;BME280;68533;51.090;17.216;2023-03-21T09:17:31;100341.78;;;7.69;83.55
79136;BME280;68533;51.090;17.216;2023-03-21T09:19:57;100339.94;;;7.90;83.56
79136;BME280;68533;51.090;17.216;2023-03-21T09:22:25;100334.78;;;8.03;82.25
79136;BME280;68533;51.090;17.216;2023-03-21T09:24:52;100342.56;;;8.42;80.77
79136;BME280;68533;51.090;17.216;2023-03-21T09:27:19;100335.44;;;8.56;80.67
79136;BME280;68533;51.090;17.216;2023-03-21T09:29:51;100333.53;;;8.51;81.29
79136;BME280;68533;51.090;17.216;2023-03-21T09:32:19;100339.53;;;9.29;78.01
79136;BME280;68533;51.090;17.216;2023-03-21T09:34:45;100333.09;;;9.64;77.56
79136;BME280;68533;51.090;17.216;2023-03-21T09:37:15;100335.19;;;9.88;75.55
79136;BME280;68533;51.090;17.216;2023-03-21T09:39:42;100338.56;;;10.34;73.02
79136;BME280;68533;51.090;17.216;2023-03-21T09:44:51;100338.13;;;11.76;67.36
79136;BME280;68533;51.090;17.216;2023-03-21T09:47:25;100337.44;;;11.60;64.86
79136;BME280;68533;51.090;17.216;2023-03-21T09:50:00;100334.91;;;11.64;64.61
79136;BME280;68533;51.090;17.216;2023-03-21T09:52:50;100330.41;;;11.73;63.55
79136;BME280;68533;51.090;17.216;2023-03-21T09:55:35;100331.41;;;12.25;65.00
79136;BME280;68533;51.090;17.216;2023-03-21T09:58:32;100333.09;;;12.77;62.67
79136;BME280;68533;51.090;17.216;2023-03-21T10:01:06;100323.75;;;12.22;63.57
79136;BME280;68533;51.090;17.216;2023-03-21T10:03:36;100321.91;;;11.70;64.72
79136;BME280;68533;51.090;17.216;2023-03-21T10:06:09;100329.47;;;12.25;61.85
79136;BME280;68533;51.090;17.216;2023-03-21T10:08:41;100326.94;;;11.86;63.53
79136;BME280;68533;51.090;17.216;2023-03-21T10:13:48;100327.06;;;11.00;66.53
79136;BME280;68533;51.090;17.216;2023-03-21T10:16:40;100323.59;;;10.84;67.58
79136;BME280;68533;51.090;17.216;2023-03-21T10:19:11;100323.94;;;10.43;69.28
79136;BME280;68533;51.090;17.216;2023-03-21T10:21:39;100321.19;;;10.43;68.20
79136;BME280;68533;51.090;17.216;2023-03-21T10:24:13;100328.44;;;10.97;67.89
79136;BME280;68533;51.090;17.216;2023-03-21T10:26:47;100322.22;;;11.15;65.67
79136;BME280;68533;51.090;17.216;2023-03-21T10:29:16;100328.25;;;10.55;68.06
79136;BME280;68533;51.090;17.216;2023-03-21T10:31:45;100330.69;;;10.17;68.20
79136;BME280;68533;51.090;17.216;2023-03-21T10:34:35;100332.25;;;10.33;67.73
79136;BME280;68533;51.090;17.216;2023-03-21T10:37:02;100335.63;;;11.51;65.94
79136;BME280;68533;51.090;17.216;2023-03-21T10:39:36;100333.91;;;12.02;63.30
79136;BME280;68533;51.090;17.216;2023-03-21T10:42:03;100334.63;;;11.13;65.18
79136;BME280;68533;51.090;17.216;2023-03-21T10:44:31;100329.63;;;11.44;62.34
79136;BME280;68533;51.090;17.216;2023-03-21T10:47:06;100324.91;;;12.53;62.33
79136;BME280;68533;51.090;17.216;2023-03-21T10:49:35;100325.91;;;12.95;59.59
79136;BME280;68533;51.090;17.216;2023-03-21T10:52:04;100331.41;;;13.27;59.24
79136;BME280;68533;51.090;17.216;2023-03-21T10:54:33;100328.13;;;12.41;58.95
79136;BME280;68533;51.090;17.216;2023-03-21T10:57:03;100329.97;;;12.46;60.77
79136;BME280;68533;51.090;17.216;2023-03-21T10:59:54;100331.56;;;12.15;61.70
79136;BME280;68533;51.090;17.216;2023-03-21T11:02:29;100328.44;;;11.55;63.42
79136;BME280;68533;51.090;17.216;2023-03-21T11:05:03;100324.03;;;11.54;64.49
79136;BME280;68533;51.090;17.216;2023-03-21T11:07:30;100323.13;;;11.06;64.29
79136;BME280;68533;51.090;17.216;2023-03-21T11:09:59;100323.41;;;11.09;64.12
79136;BME280;68533;51.090;17.216;2023-03-21T11:12:37;100320.03;;;10.83;66.04
79136;BME280;68533;51.090;17.216;2023-03-21T11:15:27;100319.94;;;10.60;67.25
79136;BME280;68533;51.090;17.216;2023-03-21T11:17:53;100323.34;;;10.46;67.47
79136;BME280;68533;51.090;17.216;2023-03-21T11:20:20;100316.53;;;10.39;68.04
79136;BME280;68533;51.090;17.216;2023-03-21T11:22:47;100315.22;;;10.31;67.98
79136;BME280;68533;51.090;17.216;2023-03-21T11:25:31;100314.53;;;10.05;68.10
79136;BME280;68533;51.090;17.216;2023-03-21T11:28:05;100308.94;;;10.16;68.39
79136;BME280;68533;51.090;17.216;2023-03-21T11:30:33;100307.59;;;10.18;67.78
79136;BME280;68533;51.090;17.216;2023-03-21T11:33:01;100308.16;;;10.15;69.17
79136;BME280;68533;51.090;17.216;2023-03-21T11:35:35;100309.72;;;10.31;68.07
79136;BME280;68533;51.090;17.216;2023-03-21T11:38:04;100299.94;;;10.10;68.88
79136;BME280;68533;51.090;17.216;2023-03-21T11:40:34;100298.78;;;10.16;67.05
79136;BME280;68533;51.090;17.216;2023-03-21T11:43:03;100302.09;;;10.18;68.25
79136;BME280;68533;51.090;17.216;2023-03-21T11:45:33;100302.19;;;9.98;67.88
79136;BME280;68533;51.090;17.216;2023-03-21T11:48:06;100297.81;;;9.97;69.01
79136;BME280;68533;51.090;17.216;2023-03-21T11:50:35;100304.63;;;10.04;68.48
79136;BME280;68533;51.090;17.216;2023-03-21T11:53:36;100296.72;;;9.98;68.48
79136;BME280;68533;51.090;17.216;2023-03-21T12:04:54;100288.38;;;10.13;69.12
79136;BME280;68533;51.090;17.216;2023-03-21T12:15:35;100283.19;;;10.06;67.49
79136;BME280;68533;51.090;17.216;2023-03-21T12:18:44;100271.38;;;10.06;67.51
79136;BME280;68533;51.090;17.216;2023-03-21T12:26:42;100271.53;;;10.30;65.49
79136;BME280;68533;51.090;17.216;2023-03-21T12:32:30;100267.06;;;10.73;64.26
79136;BME280;68533;51.090;17.216;2023-03-21T12:38:03;100269.84;;;10.68;63.21
79136;BME280;68533;51.090;17.216;2023-03-21T12:45:45;100250.78;;;11.05;63.14
79136;BME280;68533;51.090;17.216;2023-03-21T12:48:36;100252.19;;;11.26;63.64
79136;BME280;68533;51.090;17.216;2023-03-21T12:51:10;100256.72;;;11.17;61.44
79136;BME280;68533;51.090;17.216;2023-03-21T12:56:33;100246.09;;;10.77;62.19
79136;BME280;68533;51.090;17.216;2023-03-21T13:01:47;100242.16;;;11.36;62.75
79136;BME280;68533;51.090;17.216;2023-03-21T13:04:33;100243.91;;;11.50;61.67
79136;BME280;68533;51.090;17.216;2023-03-21T13:07:04;100240.34;;;11.50;61.56
79136;BME280;68533;51.090;17.216;2023-03-21T13:09:40;100232.25;;;11.58;60.58
79136;BME280;68533;51.090;17.216;2023-03-21T13:17:35;100222.91;;;11.36;61.08
79136;BME280;68533;51.090;17.216;2023-03-21T13:20:37;100225.91;;;11.39;62.16
79136;BME280;68533;51.090;17.216;2023-03-21T13:23:07;100220.16;;;11.36;61.90
79136;BME280;68533;51.090;17.216;2023-03-21T13:25:41;100217.84;;;11.43;62.17
79136;BME280;68533;51.090;17.216;2023-03-21T13:28:14;100223.09;;;11.20;62.75
79136;BME280;68533;51.090;17.216;2023-03-21T13:30:41;100210.75;;;11.18;62.46
79136;BME280;68533;51.090;17.216;2023-03-21T13:33:20;100219.50;;;11.20;61.92
79136;BME280;68533;51.090;17.216;2023-03-21T13:35:59;100213.66;;;11.26;59.22
79136;BME280;68533;51.090;17.216;2023-03-21T13:38:32;100205.72;;;11.25;59.85
79136;BME280;68533;51.090;17.216;2023-03-21T13:43:32;100203.38;;;11.56;61.30
79136;BME280;68533;51.090;17.216;2023-03-21T13:46:10;100197.63;;;11.52;59.35
79136;BME280;68533;51.090;17.216;2023-03-21T13:59:10;100206.00;;;12.55;57.71
79136;BME280;68533;51.090;17.216;2023-03-21T14:01:44;100192.94;;;12.60;57.17
79136;BME280;68533;51.090;17.216;2023-03-21T14:04:26;100202.81;;;12.80;56.39
79136;BME280;68533;51.090;17.216;2023-03-21T14:07:04;100198.28;;;12.38;57.29
79136;BME280;68533;51.090;17.216;2023-03-21T14:09:39;100197.47;;;12.05;57.89
79136;BME280;68533;51.090;17.216;2023-03-21T14:12:13;100199.63;;;11.89;57.77
79136;BME280;68533;51.090;17.216;2023-03-21T14:14:44;100197.19;;;11.64;59.75
79136;BME280;68533;51.090;17.216;2023-03-21T14:17:25;100189.63;;;11.56;61.28
79136;BME280;68533;51.090;17.216;2023-03-21T14:19:59;100187.81;;;11.46;58.31
79136;BME280;68533;51.090;17.216;2023-03-21T14:22:26;100190.19;;;11.53;59.66
79136;BME280;68533;51.090;17.216;2023-03-21T14:27:27;100183.03;;;11.52;59.19
79136;BME280;68533;51.090;17.216;2023-03-21T14:29:55;100181.03;;;11.39;60.29
79136;BME280;68533;51.090;17.216;2023-03-21T14:32:24;100175.00;;;11.37;59.20
79136;BME280;68533;51.090;17.216;2023-03-21T14:34:54;100172.88;;;11.28;58.98
79136;BME280;68533;51.090;17.216;2023-03-21T14:37:38;100176.25;;;11.25;60.49
79136;BME280;68533;51.090;17.216;2023-03-21T14:40:15;100171.94;;;11.38;60.37
79136;BME280;68533;51.090;17.216;2023-03-21T14:42:46;100174.44;;;11.16;62.16
79136;BME280;68533;51.090;17.216;2023-03-21T14:45:27;100165.06;;;11.17;61.59
79136;BME280;68533;51.090;17.216;2023-03-21T14:48:04;100159.59;;;11.12;60.19